Time;durP1;ratioP1;P1;durP2;ratioP2;P2;SDS_P1;SDS_P2;PMS_P1;PMS_P2;Temp;Humidity;BMP_temperature;BMP_pressure;BME280_temperature;BME280_humidity;BME280_pressure;Samples;Min_cycle;Max_cycle;Signal;HPM_P1;HPM_P2
2023/04/18 00:00:28;;;;;;;11.82;8.50;;;;;;;;;;5031765;28;20671;-62
2023/04/18 00:02:53;;;;;;;11.60;8.82;;;;;;;;;;5032498;28;20216;-62
2023/04/18 00:05:19;;;;;;;12.50;8.50;;;;;;;;;;5031672;28;20203;-62
2023/04/18 00:07:44;;;;;;;13.00;8.10;;;;;;;;;;5031628;28;20745;-62
2023/04/18 00:10:10;;;;;;;12.77;8.63;;;;;;;;;;5031670;28;20220;-62
2023/04/18 00:12:35;;;;;;;14.43;8.88;;;;;;;;;;5032487;28;20269;-61
2023/04/18 00:15:01;;;;;;;16.00;9.38;;;;;;;;;;5030910;28;20591;-62
2023/04/18 00:17:27;;;;;;;12.55;8.38;;;;;;;;;;5006136;28;20361;-61
2023/04/18 00:19:53;;;;;;;12.27;8.48;;;;;;;;;;5014468;28;20212;-61
2023/04/18 00:22:21;;;;;;;12.43;8.02;;;;;;;;;;5013740;28;20815;-61
2023/04/18 00:24:47;;;;;;;12.05;8.15;;;;;;;;;;5010065;28;20211;-62
2023/04/18 00:27:13;;;;;;;12.88;8.43;;;;;;;;;;5021805;28;20224;-62
2023/04/18 00:29:39;;;;;;;11.15;8.13;;;;;;;;;;5021247;28;20243;-62
2023/04/18 00:32:05;;;;;;;13.18;8.35;;;;;;;;;;5022084;28;20757;-61
2023/04/18 00:34:30;;;;;;;14.90;7.90;;;;;;;;;;5021682;28;20211;-61
2023/04/18 00:36:55;;;;;;;13.45;8.90;;;;;;;;;;5021427;28;20243;-61
2023/04/18 00:39:20;;;;;;;12.88;8.80;;;;;;;;;;5018522;28;20799;-62
2023/04/18 00:41:46;;;;;;;11.05;8.20;;;;;;;;;;5014139;28;20403;-62
2023/04/18 00:44:11;;;;;;;11.55;7.93;;;;;;;;;;5013871;28;20222;-62
2023/04/18 00:46:36;;;;;;;17.08;8.48;;;;;;;;;;5017566;28;20216;-61
2023/04/18 00:49:02;;;;;;;12.60;8.50;;;;;;;;;;5020714;28;20261;-62
2023/04/18 00:51:27;;;;;;;12.07;8.10;;;;;;;;;;5018642;28;20220;-61
2023/04/18 00:53:52;;;;;;;14.65;7.88;;;;;;;;;;5010843;28;20240;-61
2023/04/18 00:56:17;;;;;;;14.85;8.77;;;;;;;;;;5019148;28;20223;-61
2023/04/18 00:58:43;;;;;;;12.85;8.52;;;;;;;;;;5021600;28;21012;-61
2023/04/18 01:01:08;;;;;;;14.45;8.52;;;;;;;;;;5019316;28;20262;-62
2023/04/18 01:03:33;;;;;;;12.18;8.57;;;;;;;;;;5014182;28;20230;-61
2023/04/18 01:05:59;;;;;;;14.45;8.57;;;;;;;;;;5013926;28;20247;-62
2023/04/18 01:08:26;;;;;;;11.23;7.85;;;;;;;;;;5013160;28;20302;-62
2023/04/18 01:10:51;;;;;;;11.80;8.05;;;;;;;;;;5018893;28;20319;-61
2023/04/18 01:13:17;;;;;;;10.90;8.45;;;;;;;;;;5020962;28;20826;-62
2023/04/18 01:15:43;;;;;;;14.13;8.48;;;;;;;;;;5019414;28;20690;-62
2023/04/18 01:18:09;;;;;;;12.35;8.65;;;;;;;;;;5020170;28;20795;-62
2023/04/18 01:20:35;;;;;;;12.93;8.82;;;;;;;;;;5021122;28;20299;-61
2023/04/18 01:23:00;;;;;;;11.18;8.07;;;;;;;;;;5017385;28;20563;-62
2023/04/18 01:25:26;;;;;;;16.80;8.68;;;;;;;;;;5000201;28;20212;-62
2023/04/18 01:27:53;;;;;;;14.75;8.07;;;;;;;;;;4994664;28;20286;-61
2023/04/18 01:30:18;;;;;;;14.10;8.65;;;;;;;;;;5000040;28;20221;-62
2023/04/18 01:32:43;;;;;;;11.73;8.35;;;;;;;;;;5023644;28;20570;-62
2023/04/18 01:35:09;;;;;;;12.60;8.45;;;;;;;;;;5030139;28;20293;-62
2023/04/18 01:37:34;;;;;;;14.02;8.02;;;;;;;;;;5030593;28;20641;-62
2023/04/18 01:39:59;;;;;;;13.43;8.90;;;;;;;;;;5029709;28;20211;-62
2023/04/18 01:42:24;;;;;;;13.30;9.00;;;;;;;;;;5029961;28;20688;-62
2023/04/18 01:44:50;;;;;;;14.05;8.07;;;;;;;;;;5030317;28;20295;-61
2023/04/18 01:47:15;;;;;;;15.93;8.85;;;;;;;;;;5029331;28;20230;-62
2023/04/18 01:49:45;;;;;;;14.35;8.95;;;;;;;;;;5030443;28;20277;-62
2023/04/18 01:52:12;;;;;;;12.80;8.52;;;;;;;;;;5029076;28;20220;-62
2023/04/18 01:54:38;;;;;;;11.77;8.75;;;;;;;;;;5032411;28;20259;-62
2023/04/18 01:57:03;;;;;;;14.38;9.32;;;;;;;;;;5029884;28;20243;-61
2023/04/18 01:59:28;;;;;;;13.95;8.70;;;;;;;;;;5029721;28;20203;-61
2023/04/18 02:01:54;;;;;;;12.75;8.73;;;;;;;;;;5030204;28;20621;-62
2023/04/18 02:04:19;;;;;;;11.63;8.18;;;;;;;;;;5029717;28;20210;-61
2023/04/18 02:06:44;;;;;;;13.10;8.70;;;;;;;;;;5029207;28;20204;-62
2023/04/18 02:09:10;;;;;;;14.38;8.70;;;;;;;;;;5029590;28;20207;-62
2023/04/18 02:11:35;;;;;;;14.25;8.70;;;;;;;;;;5030005;28;20628;-62
2023/04/18 02:14:00;;;;;;;11.23;8.45;;;;;;;;;;5029183;28;20556;-62
2023/04/18 02:16:25;;;;;;;13.00;8.60;;;;;;;;;;5029731;28;20487;-62
2023/04/18 02:18:51;;;;;;;13.38;9.20;;;;;;;;;;5030059;28;20262;-61
2023/04/18 02:21:16;;;;;;;13.75;9.15;;;;;;;;;;5032145;28;20211;-62
2023/04/18 02:23:41;;;;;;;12.07;9.00;;;;;;;;;;5033887;28;20227;-62
2023/04/18 02:26:07;;;;;;;13.82;8.85;;;;;;;;;;5033490;28;20592;-61
2023/04/18 02:28:32;;;;;;;12.48;9.32;;;;;;;;;;5033334;28;20208;-61
2023/04/18 02:30:58;;;;;;;12.60;8.23;;;;;;;;;;5034162;28;20604;-61
2023/04/18 02:33:23;;;;;;;11.93;8.65;;;;;;;;;;5033414;28;20211;-61
2023/04/18 02:35:48;;;;;;;14.13;8.65;;;;;;;;;;5036713;28;20776;-61
2023/04/18 02:38:14;;;;;;;12.73;8.85;;;;;;;;;;5033245;28;20273;-61
2023/04/18 02:40:39;;;;;;;12.87;8.47;;;;;;;;;;5033777;28;20219;-61
2023/04/18 02:43:05;;;;;;;14.20;8.32;;;;;;;;;;5034470;28;20682;-61
2023/04/18 02:45:31;;;;;;;13.00;8.60;;;;;;;;;;5053750;28;20239;-62
2023/04/18 02:47:56;;;;;;;14.40;9.10;;;;;;;;;;5053495;28;20217;-62
2023/04/18 02:50:22;;;;;;;13.13;9.20;;;;;;;;;;5052492;28;20231;-61
2023/04/18 02:52:47;;;;;;;13.65;8.68;;;;;;;;;;5053179;28;20211;-62
2023/04/18 02:55:12;;;;;;;13.95;9.45;;;;;;;;;;5015020;28;20627;-62
2023/04/18 02:57:38;;;;;;;13.90;9.60;;;;;;;;;;5026427;28;20226;-62
2023/04/18 03:00:05;;;;;;;13.45;8.73;;;;;;;;;;5033085;28;20632;-62
2023/04/18 03:02:30;;;;;;;13.88;9.07;;;;;;;;;;5032582;28;20215;-61
2023/04/18 03:04:55;;;;;;;14.20;9.20;;;;;;;;;;5033325;28;20215;-61
2023/04/18 03:07:21;;;;;;;14.20;8.93;;;;;;;;;;5032776;28;20251;-62
2023/04/18 03:09:46;;;;;;;12.80;9.23;;;;;;;;;;5032511;28;20409;-62
2023/04/18 03:12:11;;;;;;;13.10;9.07;;;;;;;;;;5032746;28;20220;-61
2023/04/18 03:14:36;;;;;;;11.60;8.63;;;;;;;;;;5033026;28;20291;-62
2023/04/18 03:17:03;;;;;;;14.63;9.70;;;;;;;;;;5024706;28;20308;-62
2023/04/18 03:19:28;;;;;;;14.43;9.07;;;;;;;;;;5033073;28;20685;-62
2023/04/18 03:21:53;;;;;;;12.80;9.48;;;;;;;;;;5010716;28;20217;-62
2023/04/18 03:24:19;;;;;;;16.37;9.60;;;;;;;;;;4984759;28;20694;-61
2023/04/18 03:26:44;;;;;;;15.07;9.90;;;;;;;;;;4977229;28;20229;-62
2023/04/18 03:29:10;;;;;;;13.07;9.23;;;;;;;;;;4988493;28;20208;-61
2023/04/18 03:31:35;;;;;;;14.20;9.63;;;;;;;;;;4985837;28;20232;-61
2023/04/18 03:34:00;;;;;;;14.13;9.67;;;;;;;;;;4983877;28;20221;-62
2023/04/18 03:36:27;;;;;;;14.20;9.32;;;;;;;;;;4984268;28;20219;-61
2023/04/18 03:38:53;;;;;;;14.67;9.93;;;;;;;;;;4986088;28;20343;-61
2023/04/18 03:41:18;;;;;;;13.50;9.57;;;;;;;;;;4988781;28;20684;-61
2023/04/18 03:43:43;;;;;;;15.93;9.70;;;;;;;;;;4997148;28;20267;-61
2023/04/18 03:46:09;;;;;;;15.00;9.85;;;;;;;;;;4994925;28;20303;-61
2023/04/18 03:48:36;;;;;;;16.23;9.63;;;;;;;;;;4995634;28;20220;-61
2023/04/18 03:51:01;;;;;;;14.33;9.80;;;;;;;;;;4995544;28;20543;-61
2023/04/18 03:53:26;;;;;;;15.83;10.23;;;;;;;;;;4996821;28;20264;-61
2023/04/18 03:55:52;;;;;;;15.43;10.05;;;;;;;;;;4988258;28;20284;-62
2023/04/18 03:58:22;;;;;;;12.50;9.70;;;;;;;;;;5002886;28;20212;-61
2023/04/18 04:00:47;;;;;;;15.85;10.13;;;;;;;;;;5002114;28;20236;-61
2023/04/18 04:03:12;;;;;;;14.40;9.57;;;;;;;;;;5002338;28;20263;-61
2023/04/18 04:05:38;;;;;;;14.63;10.40;;;;;;;;;;5002541;28;20224;-61
2023/04/18 04:08:03;;;;;;;13.48;10.05;;;;;;;;;;4997082;28;20205;-61
2023/04/18 04:10:28;;;;;;;19.25;11.10;;;;;;;;;;4994566;28;20926;-61
2023/04/18 04:12:54;;;;;;;14.67;9.93;;;;;;;;;;4994936;28;20431;-61
2023/04/18 04:15:19;;;;;;;13.87;10.33;;;;;;;;;;4998776;28;20208;-61
2023/04/18 04:17:44;;;;;;;14.70;10.13;;;;;;;;;;4983499;28;20601;-61
2023/04/18 04:20:10;;;;;;;13.60;9.73;;;;;;;;;;4981729;28;20223;-62
2023/04/18 04:22:36;;;;;;;16.80;10.53;;;;;;;;;;4983435;28;20217;-62
2023/04/18 04:25:02;;;;;;;15.65;10.57;;;;;;;;;;4982781;28;20213;-62
2023/04/18 04:27:27;;;;;;;16.02;10.35;;;;;;;;;;4982788;28;20683;-61
2023/04/18 04:29:53;;;;;;;16.05;10.35;;;;;;;;;;4979823;28;20267;-61
2023/04/18 04:32:19;;;;;;;14.05;9.63;;;;;;;;;;4975506;28;20307;-61
2023/04/18 04:34:45;;;;;;;14.65;10.20;;;;;;;;;;4974546;28;20263;-61
2023/04/18 04:37:12;;;;;;;14.93;10.03;;;;;;;;;;4978057;28;20249;-61
2023/04/18 04:39:38;;;;;;;14.13;10.07;;;;;;;;;;4983195;28;20213;-61
2023/04/18 04:42:04;;;;;;;13.70;10.23;;;;;;;;;;4986637;28;20264;-61
2023/04/18 04:44:30;;;;;;;14.07;10.43;;;;;;;;;;5001655;28;20216;-61
2023/04/18 04:46:55;;;;;;;14.73;10.55;;;;;;;;;;5002323;28;20228;-61
2023/04/18 04:49:20;;;;;;;15.13;10.50;;;;;;;;;;5000256;28;20578;-61
2023/04/18 04:51:46;;;;;;;16.65;10.70;;;;;;;;;;5000665;28;20267;-61
2023/04/18 04:54:11;;;;;;;15.23;10.37;;;;;;;;;;4982819;28;20229;-61
2023/04/18 04:56:36;;;;;;;14.23;10.88;;;;;;;;;;4974328;28;20225;-64
2023/04/18 04:59:02;;;;;;;16.43;10.73;;;;;;;;;;4976068;28;20217;-65
2023/04/18 05:01:27;;;;;;;14.77;10.27;;;;;;;;;;4982819;28;20584;-66
2023/04/18 05:03:52;;;;;;;16.30;10.93;;;;;;;;;;4981841;28;20256;-63
2023/04/18 05:06:19;;;;;;;15.88;10.88;;;;;;;;;;4981934;28;20260;-63
2023/04/18 05:08:46;;;;;;;17.23;12.02;;;;;;;;;;4990012;28;20466;-64
2023/04/18 05:11:11;;;;;;;13.68;10.32;;;;;;;;;;4991251;28;20221;-63
2023/04/18 05:13:37;;;;;;;14.63;11.02;;;;;;;;;;5001670;28;20282;-63
2023/04/18 05:16:02;;;;;;;14.82;10.50;;;;;;;;;;4987552;28;20404;-62
2023/04/18 05:18:27;;;;;;;15.55;10.60;;;;;;;;;;4974592;28;20639;-63
2023/04/18 05:20:52;;;;;;;17.10;10.93;;;;;;;;;;4974041;28;20221;-63
2023/04/18 05:23:18;;;;;;;15.97;10.53;;;;;;;;;;4979228;28;20513;-62
2023/04/18 05:25:43;;;;;;;18.65;10.65;;;;;;;;;;4982040;28;20232;-63
2023/04/18 05:28:08;;;;;;;16.55;11.02;;;;;;;;;;4981564;28;20270;-62
2023/04/18 05:30:33;;;;;;;16.45;10.85;;;;;;;;;;4981513;28;20213;-63
2023/04/18 05:32:59;;;;;;;17.83;10.77;;;;;;;;;;4981864;28;20719;-63
2023/04/18 05:35:24;;;;;;;14.70;10.48;;;;;;;;;;4980915;28;20213;-64
2023/04/18 05:37:50;;;;;;;15.77;10.40;;;;;;;;;;4984324;28;20567;-65
2023/04/18 05:40:15;;;;;;;16.97;11.00;;;;;;;;;;4993379;28;20201;-65
2023/04/18 05:42:40;;;;;;;14.98;10.55;;;;;;;;;;4981859;28;20803;-66
2023/04/18 05:45:06;;;;;;;14.35;10.18;;;;;;;;;;4996666;28;20218;-66
2023/04/18 05:47:32;;;;;;;15.00;10.35;;;;;;;;;;5001101;28;20266;-63
2023/04/18 05:49:57;;;;;;;15.00;10.40;;;;;;;;;;5001034;28;20213;-61
2023/04/18 05:52:24;;;;;;;13.52;10.00;;;;;;;;;;4999683;28;20224;-65
2023/04/18 05:54:50;;;;;;;14.20;10.05;;;;;;;;;;5003555;28;20239;-65
2023/04/18 05:57:15;;;;;;;14.37;10.27;;;;;;;;;;5000238;28;20229;-67
2023/04/18 05:59:40;;;;;;;14.80;10.73;;;;;;;;;;5009866;28;20684;-68
2023/04/18 06:02:11;;;;;;;14.17;9.87;;;;;;;;;;5010180;28;20224;-67
2023/04/18 06:04:37;;;;;;;15.83;10.13;;;;;;;;;;4992857;28;20223;-67
2023/04/18 06:07:02;;;;;;;15.80;10.10;;;;;;;;;;4991780;28;20598;-67
2023/04/18 06:09:27;;;;;;;14.18;10.18;;;;;;;;;;5010561;28;20716;-67
2023/04/18 06:11:52;;;;;;;17.50;10.15;;;;;;;;;;5010350;28;20255;-67
2023/04/18 06:14:18;;;;;;;14.67;9.83;;;;;;;;;;5009132;28;20570;-67
2023/04/18 06:16:43;;;;;;;12.63;9.85;;;;;;;;;;5010464;28;20243;-67
2023/04/18 06:19:08;;;;;;;13.67;9.53;;;;;;;;;;5010046;28;20278;-67
2023/04/18 06:21:33;;;;;;;13.00;9.90;;;;;;;;;;5009562;28;20219;-69
2023/04/18 06:24:00;;;;;;;11.02;8.82;;;;;;;;;;5008141;28;20347;-68
2023/04/18 06:26:25;;;;;;;14.15;9.40;;;;;;;;;;5009409;28;20330;-67
2023/04/18 06:28:51;;;;;;;12.50;9.23;;;;;;;;;;5010185;28;20672;-67
2023/04/18 06:31:16;;;;;;;11.20;8.85;;;;;;;;;;5009900;28;20243;-67
2023/04/18 06:33:41;;;;;;;12.43;8.70;;;;;;;;;;5009302;28;20476;-67
2023/04/18 06:36:07;;;;;;;14.65;9.48;;;;;;;;;;5009724;28;20212;-66
2023/04/18 06:38:32;;;;;;;14.67;9.00;;;;;;;;;;5010284;28;20208;-68
2023/04/18 06:40:58;;;;;;;12.63;8.70;;;;;;;;;;5012105;28;20300;-68
2023/04/18 06:43:23;;;;;;;11.85;8.30;;;;;;;;;;5005429;28;20578;-67
2023/04/18 06:45:48;;;;;;;12.02;8.98;;;;;;;;;;5010069;28;20235;-67
2023/04/18 06:48:14;;;;;;;11.20;8.27;;;;;;;;;;5008590;28;20630;-67
2023/04/18 06:50:39;;;;;;;11.50;7.55;;;;;;;;;;5005387;28;20227;-66
2023/04/18 06:53:04;;;;;;;10.98;8.00;;;;;;;;;;5008998;28;20288;-66
2023/04/18 06:55:30;;;;;;;9.95;7.75;;;;;;;;;;4980460;28;20205;-66
2023/04/18 06:57:55;;;;;;;11.02;8.32;;;;;;;;;;4995994;28;20204;-67
2023/04/18 07:00:21;;;;;;;11.80;8.00;;;;;;;;;;4991705;28;20212;-67
2023/04/18 07:02:46;;;;;;;11.57;7.88;;;;;;;;;;5003829;28;20216;-67
2023/04/18 07:05:11;;;;;;;15.55;8.35;;;;;;;;;;5009255;28;20205;-67
2023/04/18 07:07:37;;;;;;;12.85;8.07;;;;;;;;;;5013471;28;20734;-68
2023/04/18 07:10:02;;;;;;;10.63;8.10;;;;;;;;;;5012497;28;20753;-68
2023/04/18 07:12:27;;;;;;;9.27;7.28;;;;;;;;;;5013507;28;20216;-68
2023/04/18 07:14:53;;;;;;;10.95;7.28;;;;;;;;;;5013148;28;20259;-68
2023/04/18 07:17:18;;;;;;;9.50;6.82;;;;;;;;;;4994737;28;20217;-68
2023/04/18 07:19:43;;;;;;;9.48;7.15;;;;;;;;;;4994161;28;20237;-67
2023/04/18 07:22:09;;;;;;;11.65;7.18;;;;;;;;;;4993502;28;20299;-66
2023/04/18 07:24:34;;;;;;;11.65;7.53;;;;;;;;;;5009141;28;20273;-67
2023/04/18 07:27:00;;;;;;;9.80;7.00;;;;;;;;;;5013189;28;20215;-68
2023/04/18 07:29:25;;;;;;;8.85;6.93;;;;;;;;;;4994988;28;20235;-67
2023/04/18 07:31:51;;;;;;;9.43;6.60;;;;;;;;;;5011910;28;20251;-67
2023/04/18 07:34:16;;;;;;;10.35;6.63;;;;;;;;;;5012474;28;20628;-65
2023/04/18 07:36:42;;;;;;;9.02;6.95;;;;;;;;;;5012338;28;20217;-65
2023/04/18 07:39:07;;;;;;;16.10;11.55;;;;;;;;;;4994933;28;20216;-65
2023/04/18 07:41:33;;;;;;;13.55;9.23;;;;;;;;;;4995133;28;20227;-65
2023/04/18 07:43:59;;;;;;;13.63;9.57;;;;;;;;;;5011703;28;20222;-65
2023/04/18 07:46:24;;;;;;;49.50;39.95;;;;;;;;;;5012309;28;20259;-65
2023/04/18 07:48:49;;;;;;;19.50;15.80;;;;;;;;;;5012943;28;20266;-66
2023/04/18 07:51:15;;;;;;;10.13;8.38;;;;;;;;;;5011514;28;20232;-65
2023/04/18 07:53:40;;;;;;;10.93;7.15;;;;;;;;;;5021932;28;20228;-65
2023/04/18 07:56:06;;;;;;;10.18;7.43;;;;;;;;;;5032138;28;20303;-65
2023/04/18 07:58:32;;;;;;;11.15;7.90;;;;;;;;;;5031535;28;20211;-65
2023/04/18 08:00:58;;;;;;;10.63;7.40;;;;;;;;;;5032397;28;20215;-65
2023/04/18 08:03:23;;;;;;;9.82;7.53;;;;;;;;;;5032112;28;20219;-65
2023/04/18 08:05:49;;;;;;;9.68;7.18;;;;;;;;;;5031634;28;20208;-65
2023/04/18 08:08:15;;;;;;;12.75;7.15;;;;;;;;;;5030284;28;20204;-65
2023/04/18 08:10:40;;;;;;;9.40;7.05;;;;;;;;;;5030665;28;20238;-66
2023/04/18 08:13:05;;;;;;;11.00;7.50;;;;;;;;;;5030753;28;20212;-65
2023/04/18 08:15:32;;;;;;;11.32;7.97;;;;;;;;;;5031776;28;20663;-65
2023/04/18 08:17:57;;;;;;;10.98;7.18;;;;;;;;;;5031521;28;20211;-65
2023/04/18 08:20:23;;;;;;;9.52;6.80;;;;;;;;;;5031112;28;20219;-65
2023/04/18 08:22:48;;;;;;;9.50;7.30;;;;;;;;;;5032362;28;20580;-65
2023/04/18 08:25:13;;;;;;;9.90;7.15;;;;;;;;;;5031602;28;20230;-65
2023/04/18 08:27:38;;;;;;;12.23;7.25;;;;;;;;;;5031327;28;20244;-65
2023/04/18 08:30:04;;;;;;;9.13;7.20;;;;;;;;;;5031049;28;20263;-65
2023/04/18 08:32:31;;;;;;;9.07;6.80;;;;;;;;;;5032156;28;20204;-65
2023/04/18 08:34:56;;;;;;;9.25;7.38;;;;;;;;;;5031273;28;20299;-65
2023/04/18 08:37:21;;;;;;;10.18;7.20;;;;;;;;;;5031399;28;20306;-65
2023/04/18 08:39:46;;;;;;;8.45;6.85;;;;;;;;;;5031883;28;20273;-65
2023/04/18 08:42:12;;;;;;;10.15;6.57;;;;;;;;;;5030640;28;20212;-65
2023/04/18 08:44:37;;;;;;;8.75;6.13;;;;;;;;;;5031332;28;20353;-65
2023/04/18 08:47:02;;;;;;;10.00;7.07;;;;;;;;;;5028988;28;20207;-63
2023/04/18 08:49:29;;;;;;;8.82;6.40;;;;;;;;;;5031685;28;20231;-65
2023/04/18 08:51:56;;;;;;;10.00;7.25;;;;;;;;;;5031483;28;20246;-65
2023/04/18 08:54:21;;;;;;;8.43;6.28;;;;;;;;;;5029977;28;21054;-64
2023/04/18 08:56:47;;;;;;;8.98;6.40;;;;;;;;;;5031469;28;20214;-65
2023/04/18 08:59:12;;;;;;;14.18;10.75;;;;;;;;;;5030819;28;20451;-65
2023/04/18 09:01:48;;;;;;;20.17;14.10;;;;;;;;;;5030185;28;20230;-65
2023/04/18 09:04:25;;;;;;;29.40;18.67;;;;;;;;;;5030736;28;20339;-65
2023/04/18 09:06:52;;;;;;;19.08;13.57;;;;;;;;;;5016787;28;20592;-66
2023/04/18 09:09:17;;;;;;;13.30;9.30;;;;;;;;;;5029885;28;20224;-65
2023/04/18 09:11:42;;;;;;;12.50;9.55;;;;;;;;;;5030849;28;20354;-66
2023/04/18 09:14:08;;;;;;;9.23;7.40;;;;;;;;;;5030017;28;20243;-65
2023/04/18 09:16:45;;;;;;;8.63;6.32;;;;;;;;;;5012492;28;20219;-65
2023/04/18 09:19:11;;;;;;;9.30;6.80;;;;;;;;;;5021624;28;20213;-65
2023/04/18 09:21:38;;;;;;;8.98;6.38;;;;;;;;;;5030696;28;20342;-66
2023/04/18 09:24:14;;;;;;;8.73;6.72;;;;;;;;;;5029225;28;20210;-65
2023/04/18 09:26:40;;;;;;;10.27;6.80;;;;;;;;;;5028628;28;20211;-65
2023/04/18 09:29:05;;;;;;;9.75;6.97;;;;;;;;;;5029812;28;20680;-65
2023/04/18 09:31:31;;;;;;;9.23;6.82;;;;;;;;;;5029893;28;20230;-65
2023/04/18 09:33:56;;;;;;;7.95;6.07;;;;;;;;;;5030923;28;20208;-65
2023/04/18 09:36:22;;;;;;;10.40;6.68;;;;;;;;;;5029559;28;20568;-65
2023/04/18 09:38:48;;;;;;;10.75;7.40;;;;;;;;;;5030624;28;20212;-65
2023/04/18 09:41:15;;;;;;;9.13;6.82;;;;;;;;;;5030024;28;20298;-65
2023/04/18 09:43:41;;;;;;;9.15;6.68;;;;;;;;;;5012472;28;20636;-65
2023/04/18 09:46:06;;;;;;;9.68;6.25;;;;;;;;;;5030024;28;20242;-65
2023/04/18 09:48:31;;;;;;;11.10;6.90;;;;;;;;;;5030428;28;20741;-65
2023/04/18 09:50:57;;;;;;;7.82;5.95;;;;;;;;;;5029981;28;20243;-65
2023/04/18 09:53:23;;;;;;;8.88;7.10;;;;;;;;;;5015811;28;20256;-65
2023/04/18 09:55:49;;;;;;;9.75;6.72;;;;;;;;;;5028892;28;20302;-65
2023/04/18 09:58:14;;;;;;;9.85;7.05;;;;;;;;;;5028007;28;20236;-65
2023/04/18 10:00:39;;;;;;;9.27;6.60;;;;;;;;;;5030585;28;20698;-65
2023/04/18 10:03:06;;;;;;;10.85;7.25;;;;;;;;;;5028509;28;20222;-65
2023/04/18 10:05:33;;;;;;;11.10;7.10;;;;;;;;;;5029617;28;20291;-65
2023/04/18 10:07:58;;;;;;;9.80;6.63;;;;;;;;;;5030453;28;20208;-65
2023/04/18 10:10:24;;;;;;;8.45;6.30;;;;;;;;;;5028592;28;20215;-65
2023/04/18 10:12:50;;;;;;;9.77;6.60;;;;;;;;;;5029690;28;20223;-65
2023/04/18 10:15:15;;;;;;;8.07;5.80;;;;;;;;;;5028472;28;20265;-65
2023/04/18 10:17:42;;;;;;;9.25;7.40;;;;;;;;;;5028891;28;20207;-65
2023/04/18 10:20:09;;;;;;;10.02;7.80;;;;;;;;;;5029135;28;20208;-65
2023/04/18 10:22:35;;;;;;;9.13;7.35;;;;;;;;;;5030219;28;20199;-65
2023/04/18 10:25:00;;;;;;;10.60;7.28;;;;;;;;;;5028391;28;20345;-65
2023/04/18 10:27:44;;;;;;;12.27;7.55;;;;;;;;;;5029183;28;20576;-65
2023/04/18 10:30:10;;;;;;;10.48;7.45;;;;;;;;;;5029798;28;20561;-65
2023/04/18 10:32:35;;;;;;;9.30;6.95;;;;;;;;;;5029657;28;20207;-65
2023/04/18 10:35:00;;;;;;;9.23;7.45;;;;;;;;;;5027288;28;20223;-63
2023/04/18 10:37:26;;;;;;;10.40;7.38;;;;;;;;;;5028899;28;20555;-65
2023/04/18 10:39:52;;;;;;;10.63;7.70;;;;;;;;;;5028556;28;20645;-65
2023/04/18 10:42:17;;;;;;;10.48;7.50;;;;;;;;;;5030517;28;20204;-67
2023/04/18 10:44:43;;;;;;;8.77;6.72;;;;;;;;;;5033789;28;20218;-66
2023/04/18 10:47:08;;;;;;;10.60;7.28;;;;;;;;;;5031543;28;20262;-65
2023/04/18 10:49:36;;;;;;;11.98;7.63;;;;;;;;;;5033760;28;20330;-66
2023/04/18 10:52:02;;;;;;;12.82;7.40;;;;;;;;;;5033277;28;20216;-65
2023/04/18 10:54:29;;;;;;;10.07;7.03;;;;;;;;;;5032907;28;20238;-66
2023/04/18 10:56:55;;;;;;;11.10;7.47;;;;;;;;;;5033660;28;20291;-66
2023/04/18 10:59:21;;;;;;;10.13;7.75;;;;;;;;;;5032976;28;20262;-65
2023/04/18 11:01:46;;;;;;;10.65;7.68;;;;;;;;;;5033047;28;20230;-66
2023/04/18 11:04:12;;;;;;;10.27;7.68;;;;;;;;;;5031834;28;20285;-65
2023/04/18 11:06:49;;;;;;;10.88;8.02;;;;;;;;;;5032106;28;20214;-65
2023/04/18 11:09:14;;;;;;;11.30;8.32;;;;;;;;;;5032455;28;20258;-65
2023/04/18 11:11:40;;;;;;;9.88;7.68;;;;;;;;;;5033466;28;20223;-66
2023/04/18 11:14:05;;;;;;;11.35;8.05;;;;;;;;;;5032713;28;20738;-65
2023/04/18 11:16:31;;;;;;;12.05;8.25;;;;;;;;;;5032658;28;20281;-65
2023/04/18 11:18:56;;;;;;;11.23;8.05;;;;;;;;;;5033201;28;20664;-66
2023/04/18 11:21:26;;;;;;;12.20;8.75;;;;;;;;;;5032895;28;20240;-66
2023/04/18 11:23:52;;;;;;;11.20;8.38;;;;;;;;;;5032623;28;20206;-66
2023/04/18 11:26:18;;;;;;;16.45;8.10;;;;;;;;;;5031545;28;20294;-65
2023/04/18 11:28:49;;;;;;;11.18;8.18;;;;;;;;;;5032699;28;20582;-66
2023/04/18 11:31:14;;;;;;;13.68;8.63;;;;;;;;;;5032680;28;20227;-65
2023/04/18 11:33:39;;;;;;;12.68;8.30;;;;;;;;;;5033066;28;20278;-66
2023/04/18 11:36:05;;;;;;;12.15;9.07;;;;;;;;;;5031729;28;20216;-65
2023/04/18 11:38:30;;;;;;;12.27;9.38;;;;;;;;;;5033025;28;20279;-65
2023/04/18 11:40:56;;;;;;;11.10;8.85;;;;;;;;;;5032970;28;20219;-65
2023/04/18 11:43:23;;;;;;;11.70;9.38;;;;;;;;;;5031238;28;20208;-65
2023/04/18 11:45:52;;;;;;;11.23;9.32;;;;;;;;;;5032840;28;20220;-65
2023/04/18 11:48:17;;;;;;;11.55;9.55;;;;;;;;;;5031000;28;20219;-65
2023/04/18 11:50:43;;;;;;;14.07;10.45;;;;;;;;;;5031966;28;20236;-65
2023/04/18 11:53:08;;;;;;;13.60;10.13;;;;;;;;;;5028127;28;20212;-66
2023/04/18 11:55:33;;;;;;;12.75;9.82;;;;;;;;;;5012775;28;20231;-65
2023/04/18 11:57:59;;;;;;;11.65;10.10;;;;;;;;;;5011935;28;20290;-66
2023/04/18 12:00:33;;;;;;;13.95;9.85;;;;;;;;;;5012228;28;20719;-66
2023/04/18 12:02:58;;;;;;;14.63;10.50;;;;;;;;;;5012766;28;20355;-65
2023/04/18 12:05:24;;;;;;;12.88;10.23;;;;;;;;;;5011185;28;20653;-65
2023/04/18 12:07:50;;;;;;;13.45;10.90;;;;;;;;;;4995158;28;20283;-65
2023/04/18 12:10:18;;;;;;;14.18;11.77;;;;;;;;;;5012024;28;20258;-66
2023/04/18 12:12:46;;;;;;;14.63;11.48;;;;;;;;;;5011455;28;20633;-65
2023/04/18 12:15:12;;;;;;;14.20;11.02;;;;;;;;;;5011534;28;20699;-65
2023/04/18 12:17:38;;;;;;;14.13;11.73;;;;;;;;;;5012481;28;20231;-65
2023/04/18 12:20:03;;;;;;;13.50;11.40;;;;;;;;;;5011311;28;20584;-65
2023/04/18 12:22:40;;;;;;;13.18;11.05;;;;;;;;;;5012292;28;20208;-65
2023/04/18 12:25:11;;;;;;;14.30;11.65;;;;;;;;;;5011028;28;20747;-65
2023/04/18 12:27:47;;;;;;;15.98;11.88;;;;;;;;;;5012015;28;20688;-66
2023/04/18 12:30:13;;;;;;;14.45;11.15;;;;;;;;;;5011427;28;20287;-66
2023/04/18 12:32:38;;;;;;;13.60;11.52;;;;;;;;;;5011632;28;20748;-65
2023/04/18 12:35:05;;;;;;;14.35;12.02;;;;;;;;;;5011633;28;20204;-65
2023/04/18 12:37:30;;;;;;;13.35;11.32;;;;;;;;;;5011961;28;20212;-66
2023/04/18 12:39:55;;;;;;;15.07;12.52;;;;;;;;;;5011568;28;20575;-65
2023/04/18 12:42:20;;;;;;;14.73;12.18;;;;;;;;;;5010871;28;20213;-65
2023/04/18 12:44:46;;;;;;;13.93;11.80;;;;;;;;;;5011796;28;20695;-65
2023/04/18 12:47:11;;;;;;;14.20;11.80;;;;;;;;;;5010700;28;20263;-65
2023/04/18 12:49:36;;;;;;;14.05;11.85;;;;;;;;;;5011807;28;20258;-66
2023/04/18 12:52:01;;;;;;;14.38;11.95;;;;;;;;;;5011208;28;20239;-65
2023/04/18 12:54:27;;;;;;;17.75;12.95;;;;;;;;;;5024393;28;20238;-65
2023/04/18 12:56:52;;;;;;;14.45;11.57;;;;;;;;;;5031441;28;20722;-65
2023/04/18 12:59:17;;;;;;;16.30;12.70;;;;;;;;;;5030884;28;20204;-65
2023/04/18 13:01:42;;;;;;;14.60;12.63;;;;;;;;;;5030607;28;20299;-65
2023/04/18 13:04:08;;;;;;;14.18;12.40;;;;;;;;;;5030801;28;20215;-65
2023/04/18 13:06:33;;;;;;;16.80;12.77;;;;;;;;;;5031027;28;20298;-65
2023/04/18 13:08:58;;;;;;;16.92;13.18;;;;;;;;;;5030642;28;20228;-65
2023/04/18 13:11:27;;;;;;;15.18;12.82;;;;;;;;;;5030765;28;20668;-65
2023/04/18 13:13:52;;;;;;;17.75;13.43;;;;;;;;;;5031172;28;20661;-65
2023/04/18 13:16:17;;;;;;;17.60;13.05;;;;;;;;;;5029624;28;20618;-65
2023/04/18 13:18:43;;;;;;;15.50;12.95;;;;;;;;;;5031256;28;20687;-65
2023/04/18 13:21:08;;;;;;;15.30;12.73;;;;;;;;;;5029185;28;20254;-65
2023/04/18 13:23:33;;;;;;;17.25;13.00;;;;;;;;;;5030341;28;20287;-65
2023/04/18 13:25:59;;;;;;;16.90;14.23;;;;;;;;;;5030554;28;20629;-66
2023/04/18 13:28:24;;;;;;;17.05;13.88;;;;;;;;;;5026086;28;20314;-65
2023/04/18 13:30:50;;;;;;;18.00;13.73;;;;;;;;;;5030491;28;20227;-67
2023/04/18 13:33:15;;;;;;;15.52;12.90;;;;;;;;;;5030274;28;20688;-66
2023/04/18 13:35:41;;;;;;;16.60;12.95;;;;;;;;;;5028420;28;20684;-66
2023/04/18 13:38:06;;;;;;;15.27;13.00;;;;;;;;;;5030080;28;20679;-67
2023/04/18 13:40:32;;;;;;;15.45;13.27;;;;;;;;;;5030744;28;20759;-69
2023/04/18 13:42:57;;;;;;;16.83;12.93;;;;;;;;;;5030060;28;20212;-67
2023/04/18 13:45:23;;;;;;;20.50;13.48;;;;;;;;;;5029776;28;20211;-67
2023/04/18 13:47:48;;;;;;;16.60;13.00;;;;;;;;;;5030511;28;20604;-68
2023/04/18 13:50:13;;;;;;;16.85;13.18;;;;;;;;;;5029393;28;20227;-67
2023/04/18 13:52:39;;;;;;;17.80;12.60;;;;;;;;;;5030354;28;20222;-67
2023/04/18 13:55:04;;;;;;;17.08;13.15;;;;;;;;;;5010972;28;20224;-67
2023/04/18 13:57:31;;;;;;;15.93;12.43;;;;;;;;;;4996985;28;20275;-67
2023/04/18 13:59:56;;;;;;;15.40;11.98;;;;;;;;;;4986245;28;20255;-67
2023/04/18 14:02:21;;;;;;;14.07;12.10;;;;;;;;;;4985363;28;20587;-67
2023/04/18 14:04:46;;;;;;;15.77;12.15;;;;;;;;;;4998358;28;20326;-67
2023/04/18 14:07:12;;;;;;;17.80;12.13;;;;;;;;;;4997822;28;20516;-67
2023/04/18 14:09:37;;;;;;;14.52;11.43;;;;;;;;;;5004491;28;20215;-67
2023/04/18 14:12:02;;;;;;;15.00;11.60;;;;;;;;;;5003110;28;20263;-66
2023/04/18 14:14:28;;;;;;;15.57;11.60;;;;;;;;;;4983930;28;20824;-67
2023/04/18 14:16:53;;;;;;;16.75;11.98;;;;;;;;;;4989874;28;20220;-68
2023/04/18 14:19:19;;;;;;;14.88;11.82;;;;;;;;;;4984211;28;20253;-67